redecard.com.br alexa rank chart, redecard.com.br alexa rank daily changes

redecard.com.br alexa rank chart, redecard.com.br alexa rank daily changes

redecard.com.br
Actual rank:
604 515

RANK HISTORY

Date Rank Diff
2017/03/23 604 515 -6 980
2017/03/22 611 495 +20 946
2017/03/21 590 549 +8 398
2017/03/20 582 151 +17 889
2017/03/19 564 262 -12 680
2017/03/18 576 942 -15 823
2017/03/17 592 765 +23 583
2017/03/16 569 182 +9 456
2017/03/15 559 726 -11 147
2017/03/14 570 873 -1 084
2017/03/13 571 957 -10 641
2017/03/12 582 598 -11 277
2017/03/11 593 875 -19 952
2017/03/10 613 827 +11 131
2017/03/09 602 696 -21 116
2017/03/08 623 812 -42 206
2017/03/07 666 018 -11 521
2017/03/06 677 539 -16 245
2017/03/01 693 784 +3 174
2017/02/28 690 610 -16 950
2017/02/27 707 560 -9 900
2017/02/26 717 460 -17 215
2017/02/25 734 675 -14 818
2017/02/24 749 493 -4 322
2017/02/23 753 815 +18 555
2017/02/22 735 260 -2 400
2017/02/21 737 660 +1 046
2017/02/20 736 614 +16 691
2017/02/19 719 923 +2 383
2017/02/18 717 540 +12 072
2017/02/17 705 468 +8 040
2017/02/16 697 428 -6 203
2017/02/15 703 631 +27 480
2017/02/14 676 151 +1 602
2017/02/13 674 549 +38 693
2017/02/12 635 856 -9 785
2017/02/11 645 641 +10 950
2017/02/10 634 691 -10 828
2017/02/09 645 519 +3 789
2017/02/08 641 730 -5 759
2017/02/07 647 489 -7 329
2017/02/06 654 818 +2 677
2017/02/05 652 141 +11 387
2017/02/04 640 754 -1 520
2017/02/03 642 274 +21 256
2017/02/02 621 018 +6 583
2017/02/01 614 435 +15 348
2017/01/31 599 087 +14 998
2017/01/30 584 089 +9 062
2017/01/29 575 027 +11 211
2017/01/28 563 816 -7 430
2017/01/27 571 246 -3 644
2017/01/26 574 890 +9 915
2017/01/25 564 975 +15 687
2017/01/24 549 288 -1 894
2017/01/23 551 182 -14 007
2017/01/22 565 189

WIDGET FOR YOUR SITE

DOMAINS WITH THE NEAREST RANK

Domain Rank
rescue-essentials.com 604 510
kineticcity.com 604 511
vesti-lipetsk.ru 604 512
thurstontalk.com 604 513
grecomoderno.com 604 514
redecard.com.br 604 515
lasvegasjusticecourt.us 604 516
super-mp3.com 604 517
jeansmaus6.tumblr.com 604 518
chrissiewywrot.com 604 519
kumpulankonsultasi.com 604 520

DOMAINS WITH THE NEAREST RANK BY TLD .com.br

Domain Rank
carango.com.br 604 217
surpresasparanamorados.com.br 604 238
rpccommerce.com.br 604 254
namu.com.br 604 256
medportal.com.br 604 371
redecard.com.br 604 515
minhapos.com.br 604 609
eadsenai.com.br 604 721
padrinhonota10.com.br 604 850
casadasserras.com.br 604 939
nikkeycosmeticos.com.br 605 014